createdAt,value
2023-01-17T00:02:13.170Z,93.42
2023-01-17T00:04:58.029Z,93.38
2023-01-17T00:07:48.241Z,93.33
2023-01-17T00:10:17.935Z,92.93
2023-01-17T00:12:49.873Z,92.38
2023-01-17T00:15:16.661Z,92.99
2023-01-17T00:17:43.108Z,93.06
2023-01-17T00:20:32.232Z,93.58
2023-01-17T00:23:17.575Z,93.45
2023-01-17T00:26:02.930Z,93.01
2023-01-17T00:28:38.195Z,92.87
2023-01-17T00:31:06.139Z,93.06
2023-01-17T00:33:33.064Z,93.10
2023-01-17T00:36:00.859Z,93.33
2023-01-17T00:38:30.164Z,93.30
2023-01-17T00:41:05.387Z,93.21
2023-01-17T00:43:52.981Z,93.09
2023-01-17T00:46:38.925Z,92.54
2023-01-17T00:49:24.329Z,91.96
2023-01-17T00:52:09.293Z,92.46
2023-01-17T00:54:54.747Z,92.25
2023-01-17T00:57:40.010Z,92.24
2023-01-17T01:00:25.948Z,92.28
2023-01-17T01:03:10.789Z,92.00
2023-01-17T01:05:56.675Z,92.88
2023-01-17T01:08:44.081Z,92.12
2023-01-17T01:11:34.894Z,92.39
2023-01-17T01:14:20.383Z,92.73
2023-01-17T01:17:08.031Z,92.74
2023-01-17T01:19:52.807Z,93.11
2023-01-17T01:22:38.223Z,93.39
2023-01-17T01:25:23.441Z,93.17
2023-01-17T01:28:08.254Z,93.39
2023-01-17T01:30:53.199Z,93.34
2023-01-17T01:33:19.651Z,93.17
2023-01-17T01:35:56.235Z,93.42
2023-01-17T01:38:24.876Z,93.36
2023-01-17T01:40:56.641Z,93.55
2023-01-17T01:43:45.752Z,93.30
2023-01-17T01:46:25.477Z,93.36
2023-01-17T01:49:05.607Z,93.19
2023-01-17T01:51:36.497Z,93.29
2023-01-17T01:54:14.223Z,93.04
2023-01-17T01:56:41.578Z,92.60
2023-01-17T01:59:11.205Z,92.34
2023-01-17T02:01:37.737Z,92.60
2023-01-17T02:04:09.773Z,92.62
2023-01-17T02:07:00.744Z,92.74
2023-01-17T02:09:27.756Z,92.88
2023-01-17T02:11:54.666Z,92.83
2023-01-17T02:14:22.485Z,92.91
2023-01-17T02:17:33.373Z,93.02
2023-01-17T02:20:28.582Z,92.91
2023-01-17T02:23:13.442Z,92.86
2023-01-17T02:25:58.530Z,92.71
2023-01-17T02:28:43.080Z,92.46
2023-01-17T02:31:14.854Z,92.59
2023-01-17T02:33:55.648Z,92.73
2023-01-17T02:36:56.043Z,92.45
2023-01-17T02:39:28.574Z,92.30
2023-01-17T02:42:02.487Z,92.27
2023-01-17T02:44:28.992Z,91.80
2023-01-17T02:46:59.228Z,92.08
2023-01-17T02:49:30.021Z,92.04
2023-01-17T02:52:15.285Z,91.65
2023-01-17T02:55:07.252Z,91.71
2023-01-17T02:57:51.973Z,91.19
2023-01-17T03:00:46.782Z,91.08
2023-01-17T03:03:54.496Z,91.55
2023-01-17T03:06:31.180Z,90.89
2023-01-17T03:08:57.580Z,90.80
2023-01-17T03:11:23.986Z,91.26
2023-01-17T03:13:55.683Z,90.60
2023-01-17T03:16:25.046Z,90.32
2023-01-17T03:18:54.480Z,90.74
2023-01-17T03:21:22.060Z,90.69
2023-01-17T03:23:48.479Z,90.91
2023-01-17T03:26:15.142Z,90.67
2023-01-17T03:28:41.858Z,90.42
2023-01-17T03:31:08.248Z,90.30
2023-01-17T03:33:36.511Z,90.34
2023-01-17T03:36:03.004Z,90.04
2023-01-17T03:38:30.392Z,89.72
2023-01-17T03:40:56.988Z,89.87
2023-01-17T03:43:23.421Z,89.76
2023-01-17T03:45:51.893Z,89.84
2023-01-17T03:48:18.615Z,90.04
2023-01-17T03:50:45.033Z,89.93
2023-01-17T03:53:11.433Z,89.93
2023-01-17T03:55:37.776Z,89.96
2023-01-17T03:58:04.174Z,90.17
2023-01-17T04:00:30.665Z,90.14
2023-01-17T04:02:57.140Z,90.14
2023-01-17T04:05:23.555Z,90.03
2023-01-17T04:07:51.513Z,90.10
2023-01-17T04:10:18.253Z,89.98
2023-01-17T04:12:44.752Z,89.99
2023-01-17T04:15:13.740Z,90.01
2023-01-17T04:17:40.355Z,90.49
2023-01-17T04:20:07.391Z,90.43
2023-01-17T04:22:33.828Z,90.40
2023-01-17T04:25:00.244Z,90.48
2023-01-17T04:27:26.636Z,90.72
2023-01-17T04:29:52.985Z,90.80
2023-01-17T04:32:19.356Z,90.85
2023-01-17T04:34:48.523Z,91.04
2023-01-17T04:37:14.953Z,90.74
2023-01-17T04:39:41.337Z,90.94
2023-01-17T04:42:07.708Z,90.98
2023-01-17T04:44:34.136Z,91.15
2023-01-17T04:47:02.020Z,91.11
2023-01-17T04:49:28.479Z,91.00
2023-01-17T04:51:54.887Z,91.13
2023-01-17T04:54:21.258Z,91.12
2023-01-17T04:56:47.613Z,90.98
2023-01-17T04:59:14.044Z,91.12
2023-01-17T05:01:40.573Z,91.22
2023-01-17T05:04:07.035Z,91.35
2023-01-17T05:06:33.453Z,91.37
2023-01-17T05:08:59.972Z,91.56
2023-01-17T05:11:26.335Z,91.43
2023-01-17T05:13:52.713Z,92.08
2023-01-17T05:16:19.487Z,91.91
2023-01-17T05:18:47.278Z,92.04
2023-01-17T05:21:13.740Z,92.15
2023-01-17T05:23:40.555Z,92.07
2023-01-17T05:26:07.122Z,92.12
2023-01-17T05:28:33.645Z,92.03
2023-01-17T05:31:00.141Z,92.18
2023-01-17T05:33:27.016Z,91.97
2023-01-17T05:35:53.573Z,91.89
2023-01-17T05:38:23.607Z,92.18
2023-01-17T05:40:50.287Z,92.09
2023-01-17T05:43:16.709Z,92.02
2023-01-17T05:45:43.087Z,92.40
2023-01-17T05:48:12.283Z,92.34
2023-01-17T05:50:38.658Z,92.29
2023-01-17T05:53:11.241Z,92.07
2023-01-17T05:55:38.775Z,92.00
2023-01-17T05:58:06.395Z,92.12
2023-01-17T06:00:32.900Z,91.73
2023-01-17T06:03:00.579Z,91.86
2023-01-17T06:05:28.178Z,91.80
2023-01-17T06:07:54.867Z,91.45
2023-01-17T06:10:22.193Z,91.17
2023-01-17T06:12:49.007Z,91.08
2023-01-17T06:15:17.365Z,90.97
2023-01-17T06:17:43.823Z,90.54
2023-01-17T06:20:11.797Z,90.66
2023-01-17T06:22:38.311Z,90.26
2023-01-17T06:25:05.546Z,90.14
2023-01-17T06:27:31.913Z,90.01
2023-01-17T06:29:58.334Z,89.74
2023-01-17T06:32:24.697Z,89.82
2023-01-17T06:34:51.051Z,89.62
2023-01-17T06:37:17.445Z,89.61
2023-01-17T06:39:43.958Z,89.72
2023-01-17T06:42:10.414Z,89.97
2023-01-17T06:44:36.843Z,89.66
2023-01-17T06:47:03.307Z,89.26
2023-01-17T06:49:29.754Z,89.33
2023-01-17T06:51:56.199Z,88.91
2023-01-17T06:54:22.730Z,88.96
2023-01-17T06:56:49.243Z,88.85
2023-01-17T06:59:15.635Z,88.90
2023-01-17T07:01:47.963Z,88.97
2023-01-17T07:04:14.239Z,88.68
2023-01-17T07:06:40.661Z,88.93
2023-01-17T07:09:07.118Z,89.03
2023-01-17T07:11:33.517Z,88.73
2023-01-17T07:13:59.984Z,88.51
2023-01-17T07:16:26.656Z,88.39
2023-01-17T07:18:54.652Z,88.50
2023-01-17T07:21:20.996Z,88.39
2023-01-17T07:23:48.171Z,88.06
2023-01-17T07:26:16.782Z,87.81
2023-01-17T07:28:43.352Z,87.75
2023-01-17T07:31:10.332Z,87.88
2023-01-17T07:33:39.248Z,88.04
2023-01-17T07:36:09.857Z,87.81
2023-01-17T07:38:38.641Z,87.88
2023-01-17T07:41:05.147Z,87.67
2023-01-17T07:43:31.615Z,87.52
2023-01-17T07:46:00.807Z,87.72
2023-01-17T07:48:28.527Z,87.73
2023-01-17T07:50:57.082Z,87.55
2023-01-17T07:53:25.590Z,87.43
2023-01-17T07:55:52.292Z,87.21
2023-01-17T07:58:18.811Z,86.90
2023-01-17T08:00:45.503Z,87.05
2023-01-17T08:03:17.209Z,86.92
2023-01-17T08:05:53.025Z,86.91
2023-01-17T08:08:19.658Z,86.79
2023-01-17T08:10:46.139Z,86.70
2023-01-17T08:13:12.508Z,86.52
2023-01-17T08:15:41.212Z,86.80
2023-01-17T08:18:10.333Z,86.26
2023-01-17T08:20:36.748Z,86.17
2023-01-17T08:23:03.290Z,86.23
2023-01-17T08:25:29.682Z,85.48
2023-01-17T08:27:58.093Z,85.84
2023-01-17T08:30:25.650Z,85.19
2023-01-17T08:32:52.392Z,85.29
2023-01-17T08:35:20.181Z,85.77
2023-01-17T08:37:47.826Z,85.73
2023-01-17T08:40:18.669Z,85.69
2023-01-17T08:42:45.305Z,85.53
2023-01-17T08:45:13.055Z,85.36
2023-01-17T08:47:39.471Z,85.44
2023-01-17T08:50:06.869Z,85.32
2023-01-17T08:52:33.930Z,85.11
2023-01-17T08:55:00.302Z,85.13
2023-01-17T08:57:26.701Z,85.30
2023-01-17T08:59:53.097Z,85.11
2023-01-17T09:02:19.901Z,85.14
2023-01-17T09:04:48.204Z,85.35
2023-01-17T09:07:17.462Z,84.96
2023-01-17T09:09:43.861Z,84.82
2023-01-17T09:12:10.798Z,85.10
2023-01-17T09:14:37.755Z,85.07
2023-01-17T09:17:06.795Z,85.25
2023-01-17T09:19:33.378Z,84.84
2023-01-17T09:21:59.841Z,84.98
2023-01-17T09:24:26.251Z,84.79
2023-01-17T09:26:52.660Z,84.63
2023-01-17T09:29:19.080Z,84.04
2023-01-17T09:31:47.377Z,83.09
2023-01-17T09:34:14.441Z,81.76
2023-01-17T09:36:41.886Z,81.03
2023-01-17T09:39:11.011Z,79.49
2023-01-17T09:41:48.751Z,78.87
2023-01-17T09:44:43.911Z,77.33
2023-01-17T09:47:42.118Z,76.62
2023-01-17T09:50:29.936Z,74.61
2023-01-17T09:53:01.523Z,72.87
2023-01-17T09:55:53.032Z,71.03
2023-01-17T09:58:43.890Z,70.29
2023-01-17T10:01:38.479Z,69.35
2023-01-17T10:04:48.903Z,68.48
2023-01-17T10:08:12.653Z,67.50
2023-01-17T10:11:01.582Z,67.22
2023-01-17T10:13:39.992Z,66.37
2023-01-17T10:16:24.702Z,66.17
2023-01-17T10:19:28.071Z,65.99
2023-01-17T10:22:19.503Z,65.17
2023-01-17T10:25:23.578Z,65.19
2023-01-17T10:28:05.066Z,66.04
2023-01-17T10:30:43.618Z,65.70
2023-01-17T10:33:17.920Z,66.54
2023-01-17T10:36:27.774Z,68.09
2023-01-17T10:39:02.281Z,67.34
2023-01-17T10:41:40.200Z,65.00
2023-01-17T10:44:22.833Z,64.02
2023-01-17T10:47:06.739Z,63.83
2023-01-17T10:49:33.198Z,61.51
2023-01-17T10:52:08.364Z,57.00
2023-01-17T10:55:16.935Z,54.72
2023-01-17T10:57:46.291Z,53.20
2023-01-17T11:00:28.134Z,51.21
2023-01-17T11:02:54.555Z,49.86
2023-01-17T11:05:29.850Z,49.31
2023-01-17T11:08:14.673Z,50.53
2023-01-17T11:10:48.752Z,49.02
2023-01-17T11:13:23.762Z,48.11
2023-01-17T11:15:57.528Z,46.67
2023-01-17T11:18:28.071Z,46.04
2023-01-17T11:21:16.391Z,44.42
2023-01-17T11:23:46.115Z,41.98
2023-01-17T11:26:23.492Z,41.45
2023-01-17T11:28:51.789Z,40.11
2023-01-17T11:31:18.248Z,40.72
2023-01-17T11:33:54.003Z,39.47
2023-01-17T11:36:28.836Z,38.00
2023-01-17T11:39:22.343Z,37.56
2023-01-17T11:41:48.747Z,37.84
2023-01-17T11:44:32.110Z,38.09
2023-01-17T11:47:13.611Z,37.70
2023-01-17T11:49:41.974Z,37.37
2023-01-17T11:52:17.610Z,36.41
2023-01-17T11:54:47.669Z,36.28
2023-01-17T11:57:27.829Z,35.14
2023-01-17T12:00:05.087Z,35.03
2023-01-17T12:02:57.917Z,35.17
2023-01-17T12:05:39.783Z,34.84
2023-01-17T12:08:24.664Z,34.27
2023-01-17T12:11:17.212Z,34.11
2023-01-17T12:14:00.932Z,33.16
2023-01-17T12:17:06.783Z,32.31
2023-01-17T12:20:01.081Z,32.25
2023-01-17T12:22:44.672Z,32.00
2023-01-17T12:25:14.767Z,31.21
2023-01-17T12:27:53.123Z,30.54
2023-01-17T12:30:53.601Z,30.58
2023-01-17T12:33:33.134Z,30.73
2023-01-17T12:36:09.285Z,30.39
2023-01-17T12:38:38.545Z,29.77
2023-01-17T12:41:20.841Z,29.79
2023-01-17T12:43:47.877Z,29.75
2023-01-17T12:46:45.684Z,29.72
2023-01-17T12:49:33.618Z,29.74
2023-01-17T12:52:12.696Z,29.36
2023-01-17T12:54:46.425Z,29.44
2023-01-17T12:57:21.923Z,29.09
2023-01-17T13:00:14.027Z,28.92
2023-01-17T13:02:44.701Z,28.82
2023-01-17T13:05:23.714Z,28.39
2023-01-17T13:08:02.178Z,28.59
2023-01-17T13:10:35.399Z,28.22
2023-01-17T13:13:24.077Z,27.79
2023-01-17T13:15:55.004Z,28.49
2023-01-17T13:18:26.225Z,28.26
2023-01-17T13:21:31.226Z,27.55
2023-01-17T13:23:59.345Z,28.06
2023-01-17T13:26:44.858Z,28.16
2023-01-17T13:29:48.660Z,27.91
2023-01-17T13:32:51.273Z,27.67
2023-01-17T13:35:53.182Z,27.95
2023-01-17T13:38:54.775Z,28.28
2023-01-17T13:41:42.243Z,28.42
2023-01-17T13:44:24.328Z,28.87
2023-01-17T13:46:54.947Z,28.80
2023-01-17T13:49:28.288Z,29.10
2023-01-17T13:52:28.528Z,29.48
2023-01-17T13:54:57.479Z,29.71
2023-01-17T13:57:29.355Z,30.21
2023-01-17T13:59:58.022Z,30.51
2023-01-17T14:02:33.576Z,31.62
2023-01-17T14:05:07.725Z,32.13
2023-01-17T14:07:40.408Z,32.92
2023-01-17T14:10:26.856Z,33.44
2023-01-17T14:12:54.691Z,33.84
2023-01-17T14:15:27.142Z,34.55
2023-01-17T14:17:59.437Z,35.28
2023-01-17T14:20:25.779Z,35.28
2023-01-17T14:23:02.282Z,35.42
2023-01-17T14:25:30.836Z,36.08
2023-01-17T14:28:04.329Z,36.14
2023-01-17T14:30:38.650Z,36.42
2023-01-17T14:33:19.360Z,36.60
2023-01-17T14:35:52.386Z,36.49
2023-01-17T14:38:20.963Z,36.39
2023-01-17T14:40:57.542Z,36.50
2023-01-17T14:43:28.049Z,36.90
2023-01-17T14:46:03.555Z,36.82
2023-01-17T14:48:30.137Z,37.55
2023-01-17T14:51:00.073Z,37.65
2023-01-17T14:53:31.523Z,38.04
2023-01-17T14:56:01.677Z,38.36
2023-01-17T14:58:30.902Z,39.33
2023-01-17T15:01:01.145Z,39.21
2023-01-17T15:03:30.262Z,39.55
2023-01-17T15:06:04.791Z,39.59
2023-01-17T15:08:35.734Z,39.67
2023-01-17T15:11:05.819Z,40.44
2023-01-17T15:13:44.184Z,41.09
2023-01-17T15:16:35.758Z,41.29
2023-01-17T15:19:09.255Z,40.59
2023-01-17T15:21:42.635Z,40.53
2023-01-17T15:24:18.178Z,40.73
2023-01-17T15:26:45.330Z,40.43
2023-01-17T15:29:27.093Z,41.27
2023-01-17T15:31:58.344Z,41.28
2023-01-17T15:34:32.431Z,41.71
2023-01-17T15:37:02.403Z,41.44
2023-01-17T15:39:33.769Z,41.63
2023-01-17T15:42:03.567Z,43.21
2023-01-17T15:44:48.045Z,43.63
2023-01-17T15:47:32.298Z,43.79
2023-01-17T15:50:00.228Z,43.10
2023-01-17T15:52:27.457Z,43.11
2023-01-17T15:54:58.903Z,43.06
2023-01-17T15:57:37.133Z,43.77
2023-01-17T16:00:08.632Z,43.33
2023-01-17T16:02:38.791Z,44.02
2023-01-17T16:05:24.188Z,45.38
2023-01-17T16:07:52.835Z,45.10
2023-01-17T16:10:22.529Z,44.71
2023-01-17T16:12:53.794Z,44.73
2023-01-17T16:15:21.983Z,45.14
2023-01-17T16:17:51.506Z,46.45
2023-01-17T16:20:22.254Z,46.00
2023-01-17T16:22:49.835Z,46.00
2023-01-17T16:25:22.088Z,46.46
2023-01-17T16:27:49.562Z,46.16
2023-01-17T16:30:19.075Z,47.43
2023-01-17T16:32:48.417Z,47.59
2023-01-17T16:35:20.716Z,47.11
2023-01-17T16:37:52.325Z,46.60
2023-01-17T16:40:21.246Z,47.19
2023-01-17T16:42:48.264Z,48.24
2023-01-17T16:45:15.418Z,48.97
2023-01-17T16:47:46.478Z,49.04
2023-01-17T16:50:15.551Z,49.35
2023-01-17T16:52:41.973Z,49.23
2023-01-17T16:55:13.134Z,50.90
2023-01-17T16:57:39.830Z,50.83
2023-01-17T17:00:09.800Z,50.12
2023-01-17T17:02:38.222Z,50.56
2023-01-17T17:05:07.233Z,50.50
2023-01-17T17:07:35.993Z,51.46
2023-01-17T17:10:02.360Z,52.84
2023-01-17T17:12:28.726Z,54.01
2023-01-17T17:14:55.132Z,55.44
2023-01-17T17:17:21.653Z,56.50
2023-01-17T17:19:48.475Z,57.46
2023-01-17T17:22:14.835Z,57.84
2023-01-17T17:24:42.370Z,58.12
2023-01-17T17:27:08.893Z,58.30
2023-01-17T17:29:36.022Z,58.83
2023-01-17T17:32:02.396Z,59.18
2023-01-17T17:34:32.794Z,59.65
2023-01-17T17:37:03.706Z,60.15
2023-01-17T17:39:30.323Z,60.86
2023-01-17T17:41:57.082Z,61.26
2023-01-17T17:44:23.538Z,61.84
2023-01-17T17:46:51.275Z,62.05
2023-01-17T17:49:17.700Z,62.08
2023-01-17T17:51:48.005Z,62.24
2023-01-17T17:54:15.888Z,62.54
2023-01-17T17:56:46.467Z,62.95
2023-01-17T17:59:18.283Z,63.21
2023-01-17T18:01:45.706Z,63.72
2023-01-17T18:04:12.446Z,63.79
2023-01-17T18:06:39.737Z,63.86
2023-01-17T18:09:08.179Z,64.08
2023-01-17T18:11:36.315Z,63.95
2023-01-17T18:14:05.218Z,63.95
2023-01-17T18:16:37.770Z,63.35
2023-01-17T18:19:07.008Z,63.40
2023-01-17T18:21:36.456Z,62.60
2023-01-17T18:24:09.204Z,62.32
2023-01-17T18:26:47.845Z,62.45
2023-01-17T18:29:16.280Z,62.94
2023-01-17T18:31:46.845Z,62.79
2023-01-17T18:34:24.197Z,63.00
2023-01-17T18:36:51.679Z,62.83
2023-01-17T18:39:24.500Z,62.62
2023-01-17T18:41:51.179Z,63.19
2023-01-17T18:44:21.815Z,63.45
2023-01-17T18:46:50.074Z,63.74
2023-01-17T18:49:18.966Z,64.27
2023-01-17T18:51:50.203Z,64.53
2023-01-17T18:54:17.698Z,64.72
2023-01-17T18:56:44.267Z,64.64
2023-01-17T18:59:18.068Z,63.98
2023-01-17T19:01:46.910Z,64.00
2023-01-17T19:04:14.620Z,63.78
2023-01-17T19:06:43.603Z,63.63
2023-01-17T19:09:11.940Z,63.64
2023-01-17T19:11:39.584Z,63.67
2023-01-17T19:14:06.841Z,63.71
2023-01-17T19:16:39.508Z,63.37
2023-01-17T19:19:09.441Z,63.40
2023-01-17T19:21:36.421Z,63.15
2023-01-17T19:24:03.303Z,63.38
2023-01-17T19:26:30.044Z,63.29
2023-01-17T19:28:58.708Z,63.57
2023-01-17T19:31:30.510Z,63.95
2023-01-17T19:33:58.513Z,64.20
2023-01-17T19:36:32.125Z,64.04
2023-01-17T19:39:04.821Z,63.97
2023-01-17T19:41:33.442Z,64.04
2023-01-17T19:44:01.935Z,64.39
2023-01-17T19:46:29.032Z,64.18
2023-01-17T19:48:57.352Z,64.29
2023-01-17T19:51:25.057Z,64.37
2023-01-17T19:53:51.551Z,64.43
2023-01-17T19:56:21.102Z,64.45
2023-01-17T19:58:48.126Z,64.89
2023-01-17T20:01:20.355Z,65.29
2023-01-17T20:03:47.177Z,65.41
2023-01-17T20:06:16.944Z,65.17
2023-01-17T20:08:43.928Z,65.76
2023-01-17T20:11:14.732Z,65.83
2023-01-17T20:13:45.163Z,66.03
2023-01-17T20:16:14.384Z,65.90
2023-01-17T20:18:41.374Z,66.04
2023-01-17T20:21:14.494Z,66.15
2023-01-17T20:23:42.857Z,66.38
2023-01-17T20:26:14.340Z,66.28
2023-01-17T20:28:42.512Z,66.26
2023-01-17T20:31:14.547Z,66.26
2023-01-17T20:33:43.133Z,66.57
2023-01-17T20:36:12.631Z,66.53
2023-01-17T20:38:46.985Z,66.21
2023-01-17T20:41:21.967Z,66.72
2023-01-17T20:43:51.025Z,67.28
2023-01-17T20:46:19.063Z,67.09
2023-01-17T20:48:46.099Z,66.73
2023-01-17T20:51:13.240Z,66.98
2023-01-17T20:53:41.583Z,67.50
2023-01-17T20:56:09.135Z,67.61
2023-01-17T20:58:35.795Z,67.87
2023-01-17T21:01:02.658Z,67.92
2023-01-17T21:03:29.337Z,67.56
2023-01-17T21:06:03.529Z,67.56
2023-01-17T21:08:33.996Z,67.80
2023-01-17T21:11:01.306Z,67.95
2023-01-17T21:13:28.387Z,68.26
2023-01-17T21:15:55.186Z,68.21
2023-01-17T21:18:23.654Z,68.54
2023-01-17T21:20:50.826Z,68.43
2023-01-17T21:23:18.209Z,67.96
2023-01-17T21:25:55.734Z,68.78
2023-01-17T21:28:27.338Z,69.35
2023-01-17T21:30:54.114Z,69.20
2023-01-17T21:33:22.023Z,68.86
2023-01-17T21:35:48.987Z,69.58
2023-01-17T21:38:15.966Z,69.81
2023-01-17T21:40:43.700Z,69.94
2023-01-17T21:43:10.897Z,70.02
2023-01-17T21:45:38.433Z,70.16
2023-01-17T21:48:06.724Z,70.72
2023-01-17T21:50:34.222Z,70.77
2023-01-17T21:53:00.860Z,70.74
2023-01-17T21:55:46.100Z,70.68
2023-01-17T21:58:38.044Z,70.85
2023-01-17T22:01:21.518Z,70.55
2023-01-17T22:04:07.110Z,70.59
2023-01-17T22:06:39.265Z,70.92
2023-01-17T22:09:06.267Z,70.37
2023-01-17T22:11:36.602Z,70.94
2023-01-17T22:14:07.288Z,70.76
2023-01-17T22:16:33.870Z,70.71
2023-01-17T22:19:00.420Z,70.96
2023-01-17T22:21:28.289Z,71.10
2023-01-17T22:24:01.917Z,70.82
2023-01-17T22:26:30.237Z,71.11
2023-01-17T22:28:59.857Z,71.18
2023-01-17T22:31:27.941Z,71.07
2023-01-17T22:33:59.551Z,71.11
2023-01-17T22:36:26.602Z,71.68
2023-01-17T22:38:53.505Z,71.44
2023-01-17T22:41:22.891Z,71.75
2023-01-17T22:43:53.611Z,71.81
2023-01-17T22:46:25.710Z,71.48
2023-01-17T22:48:53.472Z,71.46
2023-01-17T22:51:21.685Z,71.45
2023-01-17T22:53:50.863Z,71.76
2023-01-17T22:56:20.246Z,71.95
2023-01-17T22:58:49.051Z,72.47
2023-01-17T23:01:27.332Z,72.42
2023-01-17T23:03:56.955Z,72.75
2023-01-17T23:06:27.507Z,73.00
2023-01-17T23:08:56.125Z,73.34
2023-01-17T23:11:46.235Z,73.33
2023-01-17T23:14:24.058Z,73.81
2023-01-17T23:17:18.214Z,73.78
2023-01-17T23:19:49.394Z,74.09
2023-01-17T23:22:22.061Z,74.14
2023-01-17T23:25:06.187Z,74.39
2023-01-17T23:27:54.732Z,74.26
2023-01-17T23:30:28.677Z,74.33
2023-01-17T23:32:58.377Z,74.22
2023-01-17T23:35:26.929Z,74.39
2023-01-17T23:38:12.244Z,74.17
2023-01-17T23:40:39.360Z,74.60
2023-01-17T23:43:23.957Z,74.54
2023-01-17T23:45:54.555Z,74.91
2023-01-17T23:48:23.843Z,75.24
2023-01-17T23:50:50.252Z,75.85
2023-01-17T23:53:22.759Z,76.46
2023-01-17T23:55:51.612Z,76.74
2023-01-17T23:58:19.808Z,76.96
